Alma, Colorado
Current Conditions -  °F | °C
As of 1:57 PM on Tuesday 21 Oct 2014 (Local Time) from KCCU Reporting Station
Broken Clouds Broken Clouds  
Wind Chill: 41°   Ceiling: 6500
Heat Index: 46°   Visibility: 10mi
Dew Point: 27°   Wind: 10mph
Humidity: 46%   Direction: 180°S
Pressure: 30.33"   Gusts: 18mph
Location:  39.28°N, 106.06°W
Report Text: KCCU 211957Z AUTO 18009G16KT 10SM SCT035 BKN065 08/M03 A3033 RMK AO2
Loading
Personal Weather Stations






























Interactive Weather Map
Tropical Storm Tracking
New forecast layout! Learn more

10-Day Weather Forecast

Advertisements
Track Severe Weather on mobile